Aviation Digital Data Service (ADDS)

Output produced by METARs form (0951 UTC 23 April 2017)
found at http://www.aviationweather.gov/adds/metars/
 
EVLA 230920Z AUTO 30007KT 260V350 9999 NCD 07/M01 Q1008
EVRA 230950Z 32009KT 270V350 9999 VCSH FEW015 SCT056CB 06/M06 Q1006 NOSIG
TAF EVRA 230801Z 2309/2409 30010KT 9999 SCT025 
     TEMPO 2309/2317 31012G26KT SCT025CB 
     BECMG 2317/2319 19005KT 
     TEMPO 2323/2406 3000 BR BKN005
       
EVVA 230920Z AUTO 29011KT CAVOK 06/01 Q1008